createdAt,value
2023-02-05T00:07:43.780Z,100312.04
2023-02-05T00:18:11.238Z,100316.23
2023-02-05T00:28:39.321Z,100331.64
2023-02-05T00:39:09.173Z,100331.29
2023-02-05T00:49:36.935Z,100327.77
2023-02-05T01:00:07.132Z,100339.31
2023-02-05T01:10:35.078Z,100343.23
2023-02-05T01:21:02.895Z,100332.74
2023-02-05T01:31:30.893Z,100334.30
2023-02-05T01:41:58.694Z,100335.48
2023-02-05T01:52:26.935Z,100337.73
2023-02-05T02:02:55.139Z,100343.17
2023-02-05T02:13:23.709Z,100339.42
2023-02-05T02:24:13.041Z,100337.31
2023-02-05T02:34:45.110Z,100334.08
2023-02-05T02:45:15.731Z,100345.96
2023-02-05T02:55:45.665Z,100348.25
2023-02-05T03:06:15.796Z,100348.83
2023-02-05T03:16:43.392Z,100347.75
2023-02-05T03:27:11.206Z,100351.58
2023-02-05T03:37:48.270Z,100352.04
2023-02-05T03:48:32.763Z,100358.83
2023-02-05T03:59:02.635Z,100353.50
2023-02-05T04:09:30.348Z,100354.88
2023-02-05T04:19:57.882Z,100368.62
2023-02-05T04:30:25.392Z,100376.69
2023-02-05T04:40:52.961Z,100382.38
2023-02-05T04:51:20.408Z,100391.43
2023-02-05T05:01:48.124Z,100397.21
2023-02-05T05:12:15.595Z,100413.64
2023-02-05T05:22:43.216Z,100425.39
2023-02-05T05:33:11.091Z,100431.98
2023-02-05T05:43:47.886Z,100436.79
2023-02-05T05:54:15.515Z,100449.02
2023-02-05T06:04:43.209Z,100461.92
2023-02-05T06:15:11.789Z,100481.14
2023-02-05T06:25:39.414Z,100486.90
2023-02-05T06:36:08.253Z,100509.39
2023-02-05T06:46:35.848Z,100530.56
2023-02-05T06:57:03.404Z,100532.97
2023-02-05T07:07:30.972Z,100530.42
2023-02-05T07:17:58.673Z,100532.51
2023-02-05T07:28:26.299Z,100544.53
2023-02-05T07:38:53.878Z,100556.14
2023-02-05T07:49:21.500Z,100567.73
2023-02-05T07:59:49.142Z,100562.21
2023-02-05T08:10:17.051Z,100569.69
2023-02-05T08:20:45.140Z,100586.91
2023-02-05T08:31:18.216Z,100601.84
2023-02-05T08:41:45.818Z,100598.81
2023-02-05T08:52:13.337Z,100605.16
2023-02-05T09:02:41.847Z,100612.16
2023-02-05T09:13:07.963Z,100613.85
2023-02-05T09:23:35.585Z,100627.50
2023-02-05T09:34:04.830Z,100638.44
2023-02-05T09:44:50.406Z,100646.81
2023-02-05T09:55:24.878Z,100649.31
2023-02-05T10:06:09.114Z,100640.30
2023-02-05T10:17:05.907Z,100629.27
2023-02-05T10:27:42.879Z,100627.29
2023-02-05T10:38:17.207Z,100635.17
2023-02-05T10:48:50.274Z,100628.73
2023-02-05T10:59:25.873Z,100620.03
2023-02-05T11:09:54.606Z,100612.41
2023-02-05T11:20:36.560Z,100605.34
2023-02-05T11:31:21.722Z,100607.14
2023-02-05T11:41:51.813Z,100600.92
2023-02-05T11:52:28.515Z,100586.27
2023-02-05T12:03:06.445Z,100579.26
2023-02-05T12:13:47.566Z,100588.30
2023-02-05T12:24:47.548Z,100589.54
2023-02-05T12:35:37.549Z,100594.98
2023-02-05T12:46:20.013Z,100595.73
2023-02-05T12:56:56.310Z,100585.55
2023-02-05T13:07:31.976Z,100580.80
2023-02-05T13:18:03.830Z,100578.10
2023-02-05T13:28:43.230Z,100577.26
2023-02-05T13:39:34.323Z,100581.70
2023-02-05T13:50:29.462Z,100576.23
2023-02-05T14:01:02.633Z,100578.14
2023-02-05T14:11:30.858Z,100567.66
2023-02-05T14:22:11.501Z,100576.86
2023-02-05T14:33:01.116Z,100577.33
2023-02-05T14:43:35.454Z,100577.89
2023-02-05T14:54:08.248Z,100583.64
2023-02-05T15:04:46.093Z,100576.84
2023-02-05T15:15:32.794Z,100570.72
2023-02-05T15:26:05.424Z,100587.33
2023-02-05T15:36:41.490Z,100580.59
2023-02-05T15:47:18.796Z,100574.04
2023-02-05T15:57:47.005Z,100585.83
2023-02-05T16:08:23.472Z,100598.41
2023-02-05T16:18:57.262Z,100590.70
2023-02-05T16:29:38.982Z,100599.44
2023-02-05T16:40:14.722Z,100620.15
2023-02-05T16:50:43.868Z,100625.23
2023-02-05T17:01:11.650Z,100642.80
2023-02-05T17:11:42.108Z,100644.28
2023-02-05T17:22:22.758Z,100646.98
2023-02-05T17:32:51.261Z,100648.69
2023-02-05T17:43:18.898Z,100638.84
2023-02-05T17:53:46.424Z,100648.88
2023-02-05T18:04:14.622Z,100654.97
2023-02-05T18:14:42.160Z,100666.58
2023-02-05T18:25:10.483Z,100675.61
2023-02-05T18:35:39.517Z,100679.21
2023-02-05T18:46:12.700Z,100681.34
2023-02-05T18:56:40.328Z,100682.14
2023-02-05T19:07:07.959Z,100686.97
2023-02-05T19:17:35.591Z,100676.27
2023-02-05T19:28:03.305Z,100678.39
2023-02-05T19:38:31.923Z,100678.98
2023-02-05T19:49:00.815Z,100688.19
2023-02-05T19:59:27.143Z,100693.02
2023-02-05T20:09:54.671Z,100692.08
2023-02-05T20:20:33.158Z,100697.54
2023-02-05T20:31:19.340Z,100712.08
2023-02-05T20:41:47.959Z,100717.53
2023-02-05T20:52:13.932Z,100730.14
2023-02-05T21:02:41.445Z,100741.98
2023-02-05T21:13:09.006Z,100760.23
2023-02-05T21:23:36.727Z,100756.74
2023-02-05T21:34:05.028Z,100753.11
2023-02-05T21:44:32.659Z,100774.60
2023-02-05T21:55:00.229Z,100799.91
2023-02-05T22:05:28.156Z,100805.85
2023-02-05T22:16:05.711Z,100819.58
2023-02-05T22:26:36.197Z,100833.02
2023-02-05T22:37:03.954Z,100825.97
2023-02-05T22:47:31.663Z,100831.11
2023-02-05T22:57:59.235Z,100835.09
2023-02-05T23:08:26.837Z,100851.02
2023-02-05T23:18:56.955Z,100857.88
2023-02-05T23:29:24.422Z,100855.82
2023-02-05T23:39:51.945Z,100842.77
2023-02-05T23:50:19.905Z,100855.89
